createdAt,value
2023-04-23T00:00:17.058Z,2.50
2023-04-23T00:05:36.648Z,1.90
2023-04-23T00:10:48.645Z,2.20
2023-04-23T00:15:53.529Z,2.20
2023-04-23T00:21:08.877Z,2.42
2023-04-23T00:26:17.806Z,2.20
2023-04-23T00:31:27.379Z,1.92
2023-04-23T00:36:35.764Z,2.28
2023-04-23T00:41:42.129Z,2.47
2023-04-23T00:46:47.470Z,2.28
2023-04-23T00:51:54.794Z,2.30
2023-04-23T00:57:00.329Z,2.25
2023-04-23T01:07:24.288Z,2.35
2023-04-23T01:12:31.681Z,2.20
2023-04-23T01:17:42.163Z,2.20
2023-04-23T01:22:57.939Z,2.30
2023-04-23T01:28:04.227Z,2.42
2023-04-23T01:33:20.237Z,2.63
2023-04-23T01:38:32.732Z,2.45
2023-04-23T01:43:40.788Z,2.35
2023-04-23T01:48:49.911Z,2.40
2023-04-23T01:53:58.405Z,2.30
2023-04-23T01:59:04.417Z,2.30
2023-04-23T02:04:10.050Z,2.70
2023-04-23T02:09:19.887Z,2.40
2023-04-23T02:14:30.476Z,2.40
2023-04-23T02:19:44.913Z,2.60
2023-04-23T02:24:53.740Z,2.30
2023-04-23T02:30:05.827Z,2.40
2023-04-23T02:35:10.567Z,2.25
2023-04-23T02:40:17.180Z,2.72
2023-04-23T02:45:30.705Z,2.65
2023-04-23T02:50:40.406Z,2.55
2023-04-23T02:55:48.665Z,2.42
2023-04-23T03:00:58.223Z,2.67
2023-04-23T03:06:07.040Z,2.75
2023-04-23T03:11:45.475Z,2.80
2023-04-23T03:16:53.570Z,2.60
2023-04-23T03:22:05.132Z,2.60
2023-04-23T03:27:13.528Z,2.72
2023-04-23T03:32:22.462Z,2.38
2023-04-23T03:37:31.750Z,2.40
2023-04-23T03:42:38.741Z,2.45
2023-04-23T03:47:47.461Z,2.50
2023-04-23T03:52:58.643Z,2.38
2023-04-23T03:58:04.303Z,2.60
2023-04-23T04:03:12.546Z,2.20
2023-04-23T04:08:32.032Z,2.50
2023-04-23T04:13:39.080Z,2.60
2023-04-23T04:18:48.625Z,2.60
2023-04-23T04:24:04.713Z,2.65
2023-04-23T04:29:10.635Z,2.50
2023-04-23T04:34:19.034Z,3.20
2023-04-23T04:39:28.379Z,2.60
2023-04-23T04:44:39.940Z,3.30
2023-04-23T04:49:45.858Z,2.63
2023-04-23T04:54:52.826Z,3.05
2023-04-23T05:00:04.712Z,2.60
2023-04-23T05:05:11.390Z,2.97
2023-04-23T05:10:25.972Z,3.13
2023-04-23T05:15:35.060Z,3.03
2023-04-23T05:20:39.913Z,3.03
2023-04-23T05:25:59.220Z,2.97
2023-04-23T05:31:08.122Z,2.63
2023-04-23T05:36:12.800Z,3.22
2023-04-23T05:41:23.221Z,3.47
2023-04-23T05:46:34.173Z,3.33
2023-04-23T05:51:38.281Z,3.30
2023-04-23T05:56:43.566Z,3.10
2023-04-23T06:01:49.882Z,3.22
2023-04-23T06:06:54.911Z,3.53
2023-04-23T06:12:03.583Z,3.47
2023-04-23T06:17:27.118Z,2.95
2023-04-23T06:22:38.546Z,4.30
2023-04-23T06:27:54.383Z,3.60
2023-04-23T06:33:00.218Z,3.63
2023-04-23T06:38:16.335Z,3.60
2023-04-23T06:43:21.376Z,3.47
2023-04-23T06:48:32.794Z,3.63
2023-04-23T06:53:42.661Z,3.50
2023-04-23T06:58:48.510Z,3.42
2023-04-23T07:04:05.361Z,3.20
2023-04-23T07:09:10.817Z,3.70
2023-04-23T07:14:21.701Z,4.03
2023-04-23T07:19:40.239Z,3.72
2023-04-23T07:24:47.890Z,3.47
2023-04-23T07:29:51.865Z,3.83
2023-04-23T07:35:08.604Z,2.75
2023-04-23T07:40:20.868Z,3.15
2023-04-23T07:45:26.721Z,3.20
2023-04-23T07:50:34.778Z,3.13
2023-04-23T07:55:40.128Z,3.45
2023-04-23T08:00:47.932Z,1.90
2023-04-23T08:05:56.965Z,2.60
2023-04-23T08:11:06.626Z,3.20
2023-04-23T08:16:11.828Z,2.55
2023-04-23T08:21:23.220Z,2.63
2023-04-23T08:26:31.484Z,3.17
2023-04-23T08:37:11.688Z,4.10
2023-04-23T08:42:24.734Z,2.38
2023-04-23T08:47:31.354Z,2.25
2023-04-23T08:52:37.704Z,2.20
2023-04-23T08:57:42.582Z,2.28
2023-04-23T09:02:46.006Z,2.20
2023-04-23T09:07:50.149Z,2.25
2023-04-23T09:12:53.192Z,2.20
2023-04-23T09:17:56.026Z,2.00
2023-04-23T09:23:01.579Z,2.13
2023-04-23T09:28:08.961Z,2.40
2023-04-23T09:33:12.371Z,2.40
2023-04-23T09:38:18.073Z,2.25
2023-04-23T09:43:21.116Z,2.20
2023-04-23T09:48:24.269Z,2.10
2023-04-23T09:53:29.031Z,2.43
2023-04-23T09:58:31.720Z,2.20
2023-04-23T10:03:34.610Z,1.45
2023-04-23T10:08:40.075Z,2.30
2023-04-23T10:13:46.829Z,1.95
2023-04-23T10:19:02.246Z,1.58
2023-04-23T10:24:13.267Z,1.98
2023-04-23T10:29:19.774Z,2.00
2023-04-23T10:34:39.267Z,1.80
2023-04-23T10:39:56.946Z,2.10
2023-04-23T10:45:13.098Z,1.60
2023-04-23T10:50:32.524Z,2.22
2023-04-23T10:55:58.748Z,2.20
2023-04-23T11:01:09.596Z,2.13
2023-04-23T11:06:16.236Z,2.63
2023-04-23T11:17:08.644Z,2.20
2023-04-23T11:22:35.059Z,2.47
2023-04-23T11:27:54.534Z,2.58
2023-04-23T11:38:34.424Z,2.60
2023-04-23T11:43:44.098Z,2.47
2023-04-23T11:48:52.114Z,2.60
2023-04-23T11:54:19.173Z,2.88
2023-04-23T12:05:38.140Z,2.42
2023-04-23T12:10:59.641Z,2.90
2023-04-23T12:16:10.899Z,2.10
2023-04-23T12:21:19.968Z,2.38
2023-04-23T12:26:39.287Z,2.27
2023-04-23T12:37:03.205Z,2.70
2023-04-23T12:47:22.027Z,2.13
2023-04-23T12:52:27.455Z,2.60
2023-04-23T12:57:34.859Z,2.42
2023-04-23T13:02:40.696Z,3.00
2023-04-23T13:08:03.287Z,2.55
2023-04-23T13:13:07.651Z,2.37
2023-04-23T13:18:25.416Z,2.70
2023-04-23T13:23:34.717Z,2.60
2023-04-23T13:28:45.409Z,2.70
2023-04-23T13:34:11.223Z,2.22
2023-04-23T13:39:17.921Z,2.33
2023-04-23T13:49:54.039Z,2.10
2023-04-23T13:55:00.998Z,2.20
2023-04-23T14:00:13.255Z,2.50
2023-04-23T14:05:21.375Z,2.60
2023-04-23T14:10:43.728Z,2.63
2023-04-23T14:16:05.805Z,2.50
2023-04-23T14:21:19.451Z,2.47
2023-04-23T14:26:50.158Z,2.40
2023-04-23T14:37:30.607Z,2.50
2023-04-23T14:42:33.712Z,2.33
2023-04-23T14:47:48.190Z,3.00
2023-04-23T14:52:59.076Z,2.40
2023-04-23T14:58:03.647Z,2.45
2023-04-23T15:03:11.081Z,2.25
2023-04-23T15:08:16.284Z,3.05
2023-04-23T15:13:38.211Z,2.38
2023-04-23T15:18:41.903Z,2.70
2023-04-23T15:23:46.228Z,2.13
2023-04-23T15:28:49.469Z,1.67
2023-04-23T15:33:53.380Z,2.38
2023-04-23T15:38:57.975Z,2.13
2023-04-23T15:44:02.915Z,2.40
2023-04-23T15:49:06.568Z,2.35
2023-04-23T15:54:11.899Z,1.98
2023-04-23T15:59:14.487Z,2.60
2023-04-23T16:04:17.548Z,1.92
2023-04-23T16:14:25.675Z,2.70
2023-04-23T16:19:29.259Z,2.88
2023-04-23T16:24:32.056Z,3.03
2023-04-23T16:29:36.422Z,2.70
2023-04-23T16:34:40.313Z,2.90
2023-04-23T16:39:43.816Z,1.75
2023-04-23T16:44:49.842Z,3.45
2023-04-23T16:49:53.581Z,2.63
2023-04-23T16:54:56.340Z,4.00
2023-04-23T17:00:01.606Z,4.40
2023-04-23T17:05:05.478Z,3.42
2023-04-23T17:10:10.215Z,1.77
2023-04-23T17:15:14.705Z,2.63
2023-04-23T17:20:17.731Z,2.75
2023-04-23T17:30:25.708Z,2.80
2023-04-23T17:35:29.273Z,2.47
2023-04-23T17:40:32.015Z,2.63
2023-04-23T17:45:36.752Z,3.30
2023-04-23T17:50:40.237Z,3.10
2023-04-23T17:55:43.076Z,2.97
2023-04-23T18:00:47.700Z,2.73
2023-04-23T18:05:50.334Z,2.60
2023-04-23T18:10:54.124Z,1.77
2023-04-23T18:15:59.405Z,2.67
2023-04-23T18:21:02.994Z,3.85
2023-04-23T18:26:06.056Z,2.95
2023-04-23T18:31:10.808Z,3.60
2023-04-23T18:36:20.772Z,3.63
2023-04-23T18:41:23.845Z,4.32
2023-04-23T18:46:30.390Z,5.07
2023-04-23T18:51:37.985Z,3.97
2023-04-23T18:56:41.348Z,2.60
2023-04-23T19:01:46.544Z,1.10
2023-04-23T19:06:49.204Z,0.88
2023-04-23T19:11:52.459Z,0.98
2023-04-23T19:16:56.841Z,1.55
2023-04-23T19:22:00.879Z,1.50
2023-04-23T19:27:05.534Z,1.48
2023-04-23T19:32:10.725Z,1.65
2023-04-23T19:37:14.279Z,1.38
2023-04-23T19:42:18.064Z,1.13
2023-04-23T19:47:25.483Z,1.77
2023-04-23T19:52:28.355Z,1.70
2023-04-23T19:57:31.044Z,1.52
2023-04-23T20:02:36.106Z,2.28
2023-04-23T20:07:48.817Z,1.33
2023-04-23T20:12:52.228Z,0.80
2023-04-23T20:17:56.587Z,1.60
2023-04-23T20:22:59.219Z,1.00
2023-04-23T20:28:02.058Z,1.60
2023-04-23T20:33:07.405Z,1.67
2023-04-23T20:38:12.903Z,1.33
2023-04-23T20:43:15.544Z,2.00
2023-04-23T20:48:19.932Z,1.30
2023-04-23T20:53:25.221Z,1.75
2023-04-23T20:58:29.801Z,2.05
2023-04-23T21:08:38.934Z,2.00
2023-04-23T21:13:41.660Z,1.90
2023-04-23T21:18:45.455Z,1.33
2023-04-23T21:23:50.286Z,2.38
2023-04-23T21:28:52.807Z,1.67
2023-04-23T21:33:56.890Z,1.92
2023-04-23T21:39:01.768Z,1.85
2023-04-23T21:44:04.260Z,1.33
2023-04-23T21:49:06.742Z,1.73
2023-04-23T21:54:21.814Z,1.38
2023-04-23T21:59:24.763Z,1.45
2023-04-23T22:04:29.143Z,0.90
2023-04-23T22:09:33.145Z,2.10
2023-04-23T22:19:38.352Z,1.52
2023-04-23T22:24:42.279Z,1.58
2023-04-23T22:29:45.594Z,2.40
2023-04-23T22:34:49.041Z,1.67
2023-04-23T22:39:53.681Z,1.05
2023-04-23T22:45:03.121Z,2.45
2023-04-23T22:50:06.024Z,2.05
2023-04-23T22:55:10.861Z,2.25
2023-04-23T23:00:14.600Z,1.52
2023-04-23T23:05:27.173Z,0.70
2023-04-23T23:10:31.723Z,1.60
2023-04-23T23:15:35.309Z,1.08
2023-04-23T23:20:39.205Z,1.15
2023-04-23T23:25:43.059Z,1.30
2023-04-23T23:30:46.288Z,1.20
2023-04-23T23:40:53.449Z,0.30
2023-04-23T23:45:56.800Z,1.08
2023-04-23T23:51:01.223Z,1.53
2023-04-23T23:56:05.749Z,1.40
